Savannah, GA (31405)

2:26 PM EST en Diciembre 20, 2014 (GMT -0500)
Halcyon Bluff II | Change Station
CLOSE
Current Station
Estación meteorológica personal
Location: Savannah, GA
Altura: 20 ft
Estaciones meteorológicas cercanas

Alt 20 ft 31.98 °N, 81.11 °W | Updated 5 seconds ago

Overcast
Nublado
54.5 ° F
Sensación térmica 54.5 ° F
N
0.0
Viento Variable Viento desde SSE
Gusts 2.0 mph

Hoy
Alta -- | Baja -- ° F
--% Posibilidad de precipitaciones
Ayer
Alta -- | Baja -- ° F
Precip. -- pul
7:20 AM 5:23 PM
Creciente menguante, 2% visible
Presión 30.10 pul
Visibilidad 10.0 Millas
Nubes Nublado 800 ft
Punto de rocío 50 ° F
Humedad 83%
Precipitaciones 0.04 pul
Espesor de la nieve No disponible.
UV 1 de una escala de 12
Polen .50 de una escala de 12
Calidad del aire No disponible.
Flu Activity No disponible.
SPECI KSVN 201915Z AUTO 03007KT 10SM OVC008 13/11 A3010 RMK AO2 DZB1859E1916

More Conditions Fewer Conditions

Presión 30.10 pul
Visibilidad 10.0 Millas
Nubes Nublado 800 ft
Punto de rocío 50 ° F
Humedad 83%
Precipitaciones 0.04 pul
Espesor de la nieve No disponible.
UV 1 de una escala de 12
Polen .50 de una escala de 12
Calidad del aire No disponible.
Flu Activity No disponible.
SPECI KSVN 201915Z AUTO 03007KT 10SM OVC008 13/11 A3010 RMK AO2 DZB1859E1916

More Conditions Fewer Conditions

10-Day Weather Forecast

Almanac

Astronomía

Dec. 20, 2014 Salida Puesta
Hora real
Crepúsculo civil
Crepúsculo náutico
Crepúsculo astronómico
Luna
Horas de luz
Horas de luz
Tomorrow will be .
, % of the Moon is Illuminated

Extremos de hoy

Máximos del estado Bajos del estado

Community

WunderPhotos

Upload Photos

1,779,256 ¡fotos cargadas!

WunderBlogs® & News

Nearby

Calidad del aire

  Calidad del aire Índice AQ Contaminante
Not available.

Grosos de nieve

Estación Profundido Altura

Actividad de terremotos

Ciudad Distance Mag. Tiempo y dato
Magnitud mínima muestra es 2,5.

Temperaturas de aguas costeras

Lugar Temperatura

Estaciones meteorológicas cercanas